sensor_id;sensor_type;location;lat;lon;timestamp;temperature;humidity
24402;DHT22;12539;48.808;11.292;2022-09-13T00:01:48;17.30;98.60
24402;DHT22;12539;48.808;11.292;2022-09-13T00:04:14;17.30;98.50
24402;DHT22;12539;48.808;11.292;2022-09-13T00:06:40;17.20;98.40
24402;DHT22;12539;48.808;11.292;2022-09-13T00:09:06;17.30;98.60
24402;DHT22;12539;48.808;11.292;2022-09-13T00:11:32;17.20;98.30
24402;DHT22;12539;48.808;11.292;2022-09-13T00:14:00;17.20;97.70
24402;DHT22;12539;48.808;11.292;2022-09-13T00:16:28;17.20;97.80
24402;DHT22;12539;48.808;11.292;2022-09-13T00:18:55;17.20;98.10
24402;DHT22;12539;48.808;11.292;2022-09-13T00:21:23;17.20;98.10
24402;DHT22;12539;48.808;11.292;2022-09-13T00:23:51;17.20;98.00
24402;DHT22;12539;48.808;11.292;2022-09-13T00:26:21;17.20;97.40
24402;DHT22;12539;48.808;11.292;2022-09-13T00:28:52;17.20;97.10
24402;DHT22;12539;48.808;11.292;2022-09-13T00:31:19;17.10;97.10
24402;DHT22;12539;48.808;11.292;2022-09-13T00:33:48;17.10;97.30
24402;DHT22;12539;48.808;11.292;2022-09-13T00:36:14;17.10;97.30
24402;DHT22;12539;48.808;11.292;2022-09-13T00:38:41;17.10;97.40
24402;DHT22;12539;48.808;11.292;2022-09-13T00:41:11;17.10;97.60
24402;DHT22;12539;48.808;11.292;2022-09-13T00:43:43;17.10;97.40
24402;DHT22;12539;48.808;11.292;2022-09-13T00:46:15;17.10;97.30
24402;DHT22;12539;48.808;11.292;2022-09-13T00:48:44;17.10;97.40
24402;DHT22;12539;48.808;11.292;2022-09-13T00:51:10;17.10;97.90
24402;DHT22;12539;48.808;11.292;2022-09-13T00:53:39;17.10;98.20
24402;DHT22;12539;48.808;11.292;2022-09-13T00:56:17;17.10;98.20
24402;DHT22;12539;48.808;11.292;2022-09-13T00:58:49;17.10;97.90
24402;DHT22;12539;48.808;11.292;2022-09-13T01:01:18;17.10;97.60
24402;DHT22;12539;48.808;11.292;2022-09-13T01:03:46;17.00;97.80
24402;DHT22;12539;48.808;11.292;2022-09-13T01:06:21;17.10;98.00
24402;DHT22;12539;48.808;11.292;2022-09-13T01:08:50;17.10;98.10
24402;DHT22;12539;48.808;11.292;2022-09-13T01:11:32;17.10;97.80
24402;DHT22;12539;48.808;11.292;2022-09-13T01:14:01;17.10;97.70
24402;DHT22;12539;48.808;11.292;2022-09-13T01:16:27;17.00;97.60
24402;DHT22;12539;48.808;11.292;2022-09-13T01:18:53;17.00;97.50
24402;DHT22;12539;48.808;11.292;2022-09-13T01:30:23;16.90;97.40
24402;DHT22;12539;48.808;11.292;2022-09-13T02:03:43;16.50;98.10
24402;DHT22;12539;48.808;11.292;2022-09-13T02:06:16;16.60;98.00
24402;DHT22;12539;48.808;11.292;2022-09-13T02:11:12;16.60;97.90
24402;DHT22;12539;48.808;11.292;2022-09-13T02:13:59;16.60;97.90
24402;DHT22;12539;48.808;11.292;2022-09-13T02:16:42;16.70;97.80
24402;DHT22;12539;48.808;11.292;2022-09-13T02:19:20;16.70;98.10
24402;DHT22;12539;48.808;11.292;2022-09-13T02:21:53;16.80;97.90
24402;DHT22;12539;48.808;11.292;2022-09-13T02:24:26;16.80;97.30
24402;DHT22;12539;48.808;11.292;2022-09-13T02:26:53;16.80;97.50
24402;DHT22;12539;48.808;11.292;2022-09-13T02:29:23;16.80;97.50
24402;DHT22;12539;48.808;11.292;2022-09-13T02:31:56;16.80;97.40
24402;DHT22;12539;48.808;11.292;2022-09-13T02:37:14;16.70;98.10
24402;DHT22;12539;48.808;11.292;2022-09-13T02:39:47;16.70;98.30
24402;DHT22;12539;48.808;11.292;2022-09-13T02:42:17;16.70;98.00
24402;DHT22;12539;48.808;11.292;2022-09-13T02:44:45;16.60;98.10
24402;DHT22;12539;48.808;11.292;2022-09-13T02:55:25;16.40;97.90
24402;DHT22;12539;48.808;11.292;2022-09-13T02:57:58;16.40;98.20
24402;DHT22;12539;48.808;11.292;2022-09-13T03:00:25;16.50;98.30
24402;DHT22;12539;48.808;11.292;2022-09-13T03:02:52;16.40;98.20
24402;DHT22;12539;48.808;11.292;2022-09-13T03:05:19;16.50;98.70
24402;DHT22;12539;48.808;11.292;2022-09-13T03:07:46;16.50;98.80
24402;DHT22;12539;48.808;11.292;2022-09-13T03:10:13;16.50;99.30
24402;DHT22;12539;48.808;11.292;2022-09-13T03:13:00;16.50;99.10
24402;DHT22;12539;48.808;11.292;2022-09-13T03:29:40;16.30;97.70
24402;DHT22;12539;48.808;11.292;2022-09-13T03:37:30;16.10;97.10
24402;DHT22;12539;48.808;11.292;2022-09-13T03:40:11;16.20;97.10
24402;DHT22;12539;48.808;11.292;2022-09-13T03:42:49;16.20;97.00
24402;DHT22;12539;48.808;11.292;2022-09-13T03:45:20;16.20;96.70
24402;DHT22;12539;48.808;11.292;2022-09-13T03:47:49;16.20;96.50
24402;DHT22;12539;48.808;11.292;2022-09-13T03:50:19;16.10;96.50
24402;DHT22;12539;48.808;11.292;2022-09-13T03:52:46;16.20;96.60
24402;DHT22;12539;48.808;11.292;2022-09-13T03:55:14;16.10;96.70
24402;DHT22;12539;48.808;11.292;2022-09-13T03:57:42;16.10;96.50
24402;DHT22;12539;48.808;11.292;2022-09-13T04:00:11;16.00;96.60
24402;DHT22;12539;48.808;11.292;2022-09-13T04:02:37;16.00;96.80
24402;DHT22;12539;48.808;11.292;2022-09-13T04:05:02;16.10;96.90
24402;DHT22;12539;48.808;11.292;2022-09-13T04:07:28;16.10;96.90
24402;DHT22;12539;48.808;11.292;2022-09-13T04:09:54;16.10;97.10
24402;DHT22;12539;48.808;11.292;2022-09-13T04:12:20;16.10;97.40
24402;DHT22;12539;48.808;11.292;2022-09-13T04:14:49;16.10;97.80
24402;DHT22;12539;48.808;11.292;2022-09-13T04:17:14;16.10;97.50
24402;DHT22;12539;48.808;11.292;2022-09-13T04:20:01;16.10;97.30
24402;DHT22;12539;48.808;11.292;2022-09-13T04:22:31;16.10;96.80
24402;DHT22;12539;48.808;11.292;2022-09-13T04:24:58;16.10;96.90
24402;DHT22;12539;48.808;11.292;2022-09-13T04:27:24;16.10;96.70
24402;DHT22;12539;48.808;11.292;2022-09-13T04:29:50;16.10;97.10
24402;DHT22;12539;48.808;11.292;2022-09-13T04:32:15;16.10;97.80
24402;DHT22;12539;48.808;11.292;2022-09-13T04:34:41;16.00;98.10
24402;DHT22;12539;48.808;11.292;2022-09-13T04:37:07;16.10;98.80
24402;DHT22;12539;48.808;11.292;2022-09-13T04:39:33;16.00;99.00
24402;DHT22;12539;48.808;11.292;2022-09-13T04:41:59;16.10;99.40
24402;DHT22;12539;48.808;11.292;2022-09-13T04:44:26;16.10;99.70
24402;DHT22;12539;48.808;11.292;2022-09-13T04:46:52;16.10;99.90
24402;DHT22;12539;48.808;11.292;2022-09-13T04:49:17;16.10;99.90
24402;DHT22;12539;48.808;11.292;2022-09-13T04:51:45;16.10;99.90
24402;DHT22;12539;48.808;11.292;2022-09-13T04:54:11;16.20;99.90
24402;DHT22;12539;48.808;11.292;2022-09-13T04:56:37;16.20;99.90
24402;DHT22;12539;48.808;11.292;2022-09-13T04:59:03;16.20;99.90
24402;DHT22;12539;48.808;11.292;2022-09-13T05:01:28;16.20;99.90
24402;DHT22;12539;48.808;11.292;2022-09-13T05:03:54;16.20;99.90
24402;DHT22;12539;48.808;11.292;2022-09-13T05:06:21;16.30;99.90
24402;DHT22;12539;48.808;11.292;2022-09-13T05:08:54;16.30;99.90
24402;DHT22;12539;48.808;11.292;2022-09-13T05:11:27;16.30;99.90
24402;DHT22;12539;48.808;11.292;2022-09-13T05:13:56;16.30;99.90
24402;DHT22;12539;48.808;11.292;2022-09-13T05:16:23;16.30;99.90
24402;DHT22;12539;48.808;11.292;2022-09-13T05:18:50;16.30;99.90
24402;DHT22;12539;48.808;11.292;2022-09-13T05:21:16;16.30;99.90
24402;DHT22;12539;48.808;11.292;2022-09-13T05:23:50;16.30;99.90
24402;DHT22;12539;48.808;11.292;2022-09-13T05:26:16;16.30;99.90
24402;DHT22;12539;48.808;11.292;2022-09-13T05:28:42;16.30;99.90
24402;DHT22;12539;48.808;11.292;2022-09-13T05:31:18;16.40;99.90
24402;DHT22;12539;48.808;11.292;2022-09-13T05:33:45;16.50;99.90
24402;DHT22;12539;48.808;11.292;2022-09-13T05:36:11;16.50;99.90
24402;DHT22;12539;48.808;11.292;2022-09-13T05:38:37;16.50;99.90
24402;DHT22;12539;48.808;11.292;2022-09-13T05:41:04;16.60;99.90
24402;DHT22;12539;48.808;11.292;2022-09-13T05:43:32;16.60;99.90
24402;DHT22;12539;48.808;11.292;2022-09-13T05:46:11;16.50;99.90
24402;DHT22;12539;48.808;11.292;2022-09-13T05:48:37;16.50;99.90
24402;DHT22;12539;48.808;11.292;2022-09-13T05:51:17;16.50;99.90
24402;DHT22;12539;48.808;11.292;2022-09-13T05:53:45;16.40;99.90
24402;DHT22;12539;48.808;11.292;2022-09-13T05:56:23;16.50;99.90
24402;DHT22;12539;48.808;11.292;2022-09-13T05:58:50;16.50;99.90
24402;DHT22;12539;48.808;11.292;2022-09-13T06:01:18;16.60;99.90
24402;DHT22;12539;48.808;11.292;2022-09-13T06:03:49;16.60;99.90
24402;DHT22;12539;48.808;11.292;2022-09-13T06:06:15;16.70;99.90
24402;DHT22;12539;48.808;11.292;2022-09-13T06:08:42;16.80;99.90
24402;DHT22;12539;48.808;11.292;2022-09-13T06:11:10;16.90;99.90
24402;DHT22;12539;48.808;11.292;2022-09-13T06:13:36;17.00;99.90
24402;DHT22;12539;48.808;11.292;2022-09-13T06:16:04;17.10;99.80
24402;DHT22;12539;48.808;11.292;2022-09-13T06:18:30;17.20;99.50
24402;DHT22;12539;48.808;11.292;2022-09-13T06:21:05;17.10;99.50
24402;DHT22;12539;48.808;11.292;2022-09-13T06:23:31;17.20;99.90
24402;DHT22;12539;48.808;11.292;2022-09-13T06:26:04;17.30;99.90
24402;DHT22;12539;48.808;11.292;2022-09-13T06:28:30;17.50;99.90
24402;DHT22;12539;48.808;11.292;2022-09-13T06:33:32;17.90;99.50
24402;DHT22;12539;48.808;11.292;2022-09-13T06:36:07;18.00;98.90
24402;DHT22;12539;48.808;11.292;2022-09-13T06:38:33;18.10;98.40
24402;DHT22;12539;48.808;11.292;2022-09-13T06:41:07;18.20;98.10
24402;DHT22;12539;48.808;11.292;2022-09-13T06:43:34;18.40;97.90
24402;DHT22;12539;48.808;11.292;2022-09-13T06:46:01;18.50;97.50
24402;DHT22;12539;48.808;11.292;2022-09-13T06:48:30;18.70;96.90
24402;DHT22;12539;48.808;11.292;2022-09-13T06:51:00;18.80;96.50
24402;DHT22;12539;48.808;11.292;2022-09-13T06:53:26;19.00;96.00
24402;DHT22;12539;48.808;11.292;2022-09-13T06:56:05;19.10;95.30
24402;DHT22;12539;48.808;11.292;2022-09-13T06:58:33;19.30;95.10
24402;DHT22;12539;48.808;11.292;2022-09-13T07:03:48;19.40;94.50
24402;DHT22;12539;48.808;11.292;2022-09-13T07:06:17;19.50;94.20
24402;DHT22;12539;48.808;11.292;2022-09-13T07:08:44;19.50;93.10
24402;DHT22;12539;48.808;11.292;2022-09-13T07:11:11;19.50;92.20
24402;DHT22;12539;48.808;11.292;2022-09-13T07:13:38;19.50;92.10
24402;DHT22;12539;48.808;11.292;2022-09-13T07:16:09;19.40;92.20
24402;DHT22;12539;48.808;11.292;2022-09-13T07:18:35;19.40;92.10
24402;DHT22;12539;48.808;11.292;2022-09-13T07:21:02;19.30;92.10
24402;DHT22;12539;48.808;11.292;2022-09-13T07:23:32;19.30;92.00
24402;DHT22;12539;48.808;11.292;2022-09-13T07:25:59;19.30;91.90
24402;DHT22;12539;48.808;11.292;2022-09-13T07:28:36;19.30;92.00
24402;DHT22;12539;48.808;11.292;2022-09-13T07:33:33;19.20;92.20
24402;DHT22;12539;48.808;11.292;2022-09-13T07:35:59;19.30;92.10
24402;DHT22;12539;48.808;11.292;2022-09-13T07:38:28;19.30;92.30
24402;DHT22;12539;48.808;11.292;2022-09-13T07:40:57;19.30;91.80
24402;DHT22;12539;48.808;11.292;2022-09-13T07:43:24;19.30;91.90
24402;DHT22;12539;48.808;11.292;2022-09-13T07:46:07;19.30;92.00
24402;DHT22;12539;48.808;11.292;2022-09-13T07:48:35;19.30;91.90
24402;DHT22;12539;48.808;11.292;2022-09-13T07:51:24;19.30;92.00
24402;DHT22;12539;48.808;11.292;2022-09-13T07:53:59;19.30;92.00
24402;DHT22;12539;48.808;11.292;2022-09-13T07:56:31;19.20;92.00
24402;DHT22;12539;48.808;11.292;2022-09-13T07:58:59;19.20;92.00
24402;DHT22;12539;48.808;11.292;2022-09-13T08:01:33;19.10;92.10
24402;DHT22;12539;48.808;11.292;2022-09-13T08:04:01;19.10;92.10
24402;DHT22;12539;48.808;11.292;2022-09-13T08:06:29;19.00;92.60
24402;DHT22;12539;48.808;11.292;2022-09-13T08:08:56;19.00;93.00
24402;DHT22;12539;48.808;11.292;2022-09-13T08:11:30;19.10;92.90
24402;DHT22;12539;48.808;11.292;2022-09-13T08:13:57;19.20;92.80
24402;DHT22;12539;48.808;11.292;2022-09-13T08:16:26;19.40;92.60
24402;DHT22;12539;48.808;11.292;2022-09-13T08:18:54;19.60;92.40
24402;DHT22;12539;48.808;11.292;2022-09-13T08:21:22;19.80;91.90
24402;DHT22;12539;48.808;11.292;2022-09-13T08:23:48;19.90;91.30
24402;DHT22;12539;48.808;11.292;2022-09-13T08:26:14;20.00;91.00
24402;DHT22;12539;48.808;11.292;2022-09-13T08:28:41;20.10;90.80
24402;DHT22;12539;48.808;11.292;2022-09-13T08:31:09;20.30;90.50
24402;DHT22;12539;48.808;11.292;2022-09-13T08:33:36;20.40;90.30
24402;DHT22;12539;48.808;11.292;2022-09-13T08:36:03;20.40;90.10
24402;DHT22;12539;48.808;11.292;2022-09-13T08:38:29;20.30;90.00
24402;DHT22;12539;48.808;11.292;2022-09-13T08:49:47;20.30;90.30
24402;DHT22;12539;48.808;11.292;2022-09-13T08:52:44;20.30;90.30
24402;DHT22;12539;48.808;11.292;2022-09-13T08:58:29;20.30;90.00
24402;DHT22;12539;48.808;11.292;2022-09-13T09:06:42;20.40;89.90
24402;DHT22;12539;48.808;11.292;2022-09-13T09:09:17;20.40;90.00
24402;DHT22;12539;48.808;11.292;2022-09-13T09:11:53;20.50;90.10
24402;DHT22;12539;48.808;11.292;2022-09-13T09:14:30;20.50;90.00
24402;DHT22;12539;48.808;11.292;2022-09-13T09:17:02;20.50;90.10
24402;DHT22;12539;48.808;11.292;2022-09-13T09:19:35;20.60;90.30
24402;DHT22;12539;48.808;11.292;2022-09-13T09:22:08;20.50;90.10
24402;DHT22;12539;48.808;11.292;2022-09-13T09:24:36;20.60;89.90
24402;DHT22;12539;48.808;11.292;2022-09-13T09:27:16;20.60;89.70
24402;DHT22;12539;48.808;11.292;2022-09-13T09:29:47;20.60;89.90
24402;DHT22;12539;48.808;11.292;2022-09-13T09:32:41;20.60;89.70
24402;DHT22;12539;48.808;11.292;2022-09-13T09:38:27;20.60;90.00
24402;DHT22;12539;48.808;11.292;2022-09-13T09:40:59;20.60;90.00
24402;DHT22;12539;48.808;11.292;2022-09-13T09:43:41;20.60;90.00
24402;DHT22;12539;48.808;11.292;2022-09-13T09:46:10;20.60;90.00
24402;DHT22;12539;48.808;11.292;2022-09-13T09:48:44;20.60;90.00
24402;DHT22;12539;48.808;11.292;2022-09-13T09:51:15;20.60;89.80
24402;DHT22;12539;48.808;11.292;2022-09-13T09:53:46;20.60;90.10
24402;DHT22;12539;48.808;11.292;2022-09-13T09:56:26;20.60;90.20
24402;DHT22;12539;48.808;11.292;2022-09-13T09:58:53;20.70;90.10
24402;DHT22;12539;48.808;11.292;2022-09-13T10:01:21;20.70;90.10
24402;DHT22;12539;48.808;11.292;2022-09-13T10:06:24;20.90;90.00
24402;DHT22;12539;48.808;11.292;2022-09-13T10:09:05;21.10;89.70
24402;DHT22;12539;48.808;11.292;2022-09-13T10:17:17;22.00;87.70
24402;DHT22;12539;48.808;11.292;2022-09-13T10:19:57;22.30;86.90
24402;DHT22;12539;48.808;11.292;2022-09-13T10:22:24;22.50;86.00
24402;DHT22;12539;48.808;11.292;2022-09-13T10:24:51;22.80;85.10
24402;DHT22;12539;48.808;11.292;2022-09-13T10:29:52;23.20;82.70
24402;DHT22;12539;48.808;11.292;2022-09-13T10:32:21;23.30;81.30
24402;DHT22;12539;48.808;11.292;2022-09-13T10:34:48;23.50;80.30
24402;DHT22;12539;48.808;11.292;2022-09-13T10:37:18;23.60;79.60
24402;DHT22;12539;48.808;11.292;2022-09-13T10:39:57;23.60;78.80
24402;DHT22;12539;48.808;11.292;2022-09-13T10:42:26;23.80;78.20
24402;DHT22;12539;48.808;11.292;2022-09-13T10:44:55;23.90;77.70
24402;DHT22;12539;48.808;11.292;2022-09-13T10:47:48;24.00;77.20
24402;DHT22;12539;48.808;11.292;2022-09-13T10:50:29;24.10;76.30
24402;DHT22;12539;48.808;11.292;2022-09-13T10:52:59;24.20;76.00
24402;DHT22;12539;48.808;11.292;2022-09-13T10:55:32;24.20;75.20
24402;DHT22;12539;48.808;11.292;2022-09-13T11:03:31;24.30;73.70
24402;DHT22;12539;48.808;11.292;2022-09-13T11:30:09;24.20;72.90
24402;DHT22;12539;48.808;11.292;2022-09-13T11:32:41;24.20;72.80
24402;DHT22;12539;48.808;11.292;2022-09-13T11:40:59;23.90;72.80
24402;DHT22;12539;48.808;11.292;2022-09-13T11:57:34;23.90;72.70
24402;DHT22;12539;48.808;11.292;2022-09-13T12:00:05;24.00;72.70
24402;DHT22;12539;48.808;11.292;2022-09-13T12:02:39;24.00;72.50
24402;DHT22;12539;48.808;11.292;2022-09-13T12:05:15;24.10;72.70
24402;DHT22;12539;48.808;11.292;2022-09-13T12:07:51;24.10;72.20
24402;DHT22;12539;48.808;11.292;2022-09-13T12:13:39;24.10;72.20
24402;DHT22;12539;48.808;11.292;2022-09-13T12:16:10;24.20;71.20
24402;DHT22;12539;48.808;11.292;2022-09-13T12:18:47;24.30;72.40
24402;DHT22;12539;48.808;11.292;2022-09-13T12:21:26;24.40;73.80
24402;DHT22;12539;48.808;11.292;2022-09-13T12:31:44;24.60;74.20
24402;DHT22;12539;48.808;11.292;2022-09-13T12:34:25;24.60;73.50
24402;DHT22;12539;48.808;11.292;2022-09-13T12:37:07;24.70;72.50
24402;DHT22;12539;48.808;11.292;2022-09-13T12:51:26;24.80;74.80
24402;DHT22;12539;48.808;11.292;2022-09-13T12:54:14;24.70;74.70
24402;DHT22;12539;48.808;11.292;2022-09-13T13:01:48;24.70;73.70
24402;DHT22;12539;48.808;11.292;2022-09-13T13:07:05;24.60;74.80
24402;DHT22;12539;48.808;11.292;2022-09-13T13:09:42;24.70;75.30
24402;DHT22;12539;48.808;11.292;2022-09-13T13:12:31;24.70;75.60
24402;DHT22;12539;48.808;11.292;2022-09-13T13:14:59;24.70;74.00
24402;DHT22;12539;48.808;11.292;2022-09-13T13:17:36;24.80;74.60
24402;DHT22;12539;48.808;11.292;2022-09-13T13:23:20;24.80;72.90
24402;DHT22;12539;48.808;11.292;2022-09-13T13:33:51;24.70;70.70
24402;DHT22;12539;48.808;11.292;2022-09-13T13:36:44;24.70;70.40
24402;DHT22;12539;48.808;11.292;2022-09-13T13:57:43;24.10;72.20
24402;DHT22;12539;48.808;11.292;2022-09-13T14:00:20;24.10;72.10
24402;DHT22;12539;48.808;11.292;2022-09-13T14:05:49;24.10;71.30
24402;DHT22;12539;48.808;11.292;2022-09-13T14:08:57;24.10;71.00
24402;DHT22;12539;48.808;11.292;2022-09-13T14:19:38;23.90;70.30
24402;DHT22;12539;48.808;11.292;2022-09-13T14:22:21;23.80;70.50
24402;DHT22;12539;48.808;11.292;2022-09-13T14:24:57;23.70;70.80
24402;DHT22;12539;48.808;11.292;2022-09-13T14:27:26;23.70;71.10
24402;DHT22;12539;48.808;11.292;2022-09-13T14:29:58;23.60;71.30
24402;DHT22;12539;48.808;11.292;2022-09-13T14:32:27;23.60;71.70
24402;DHT22;12539;48.808;11.292;2022-09-13T14:35:03;23.60;71.90
24402;DHT22;12539;48.808;11.292;2022-09-13T14:37:34;23.60;71.90
24402;DHT22;12539;48.808;11.292;2022-09-13T14:42:41;23.60;72.00
24402;DHT22;12539;48.808;11.292;2022-09-13T14:45:16;23.60;72.20
24402;DHT22;12539;48.808;11.292;2022-09-13T14:47:56;23.60;72.20
24402;DHT22;12539;48.808;11.292;2022-09-13T14:50:32;23.50;72.60
24402;DHT22;12539;48.808;11.292;2022-09-13T14:53:04;23.40;72.60
24402;DHT22;12539;48.808;11.292;2022-09-13T14:55:44;23.40;72.90
24402;DHT22;12539;48.808;11.292;2022-09-13T14:58:38;23.30;73.00
24402;DHT22;12539;48.808;11.292;2022-09-13T15:01:12;23.20;74.10
24402;DHT22;12539;48.808;11.292;2022-09-13T15:03:45;23.10;74.00
24402;DHT22;12539;48.808;11.292;2022-09-13T15:06:32;23.10;74.30
24402;DHT22;12539;48.808;11.292;2022-09-13T15:11:36;22.90;74.90
24402;DHT22;12539;48.808;11.292;2022-09-13T15:16:48;22.70;75.50
24402;DHT22;12539;48.808;11.292;2022-09-13T15:19:41;22.60;75.90
24402;DHT22;12539;48.808;11.292;2022-09-13T15:24:43;22.50;77.30
24402;DHT22;12539;48.808;11.292;2022-09-13T15:27:25;22.40;77.90
24402;DHT22;12539;48.808;11.292;2022-09-13T15:29:52;22.40;78.20
24402;DHT22;12539;48.808;11.292;2022-09-13T15:32:30;22.30;78.20
24402;DHT22;12539;48.808;11.292;2022-09-13T15:34:58;22.30;78.50
24402;DHT22;12539;48.808;11.292;2022-09-13T15:37:30;22.20;78.60
24402;DHT22;12539;48.808;11.292;2022-09-13T15:40:22;22.20;78.60
24402;DHT22;12539;48.808;11.292;2022-09-13T15:43:09;22.20;78.60
24402;DHT22;12539;48.808;11.292;2022-09-13T15:45:40;22.20;78.90
24402;DHT22;12539;48.808;11.292;2022-09-13T15:48:27;22.10;79.00
24402;DHT22;12539;48.808;11.292;2022-09-13T15:51:10;22.10;79.50
24402;DHT22;12539;48.808;11.292;2022-09-13T15:53:38;22.10;79.60
24402;DHT22;12539;48.808;11.292;2022-09-13T15:56:06;22.10;79.90
24402;DHT22;12539;48.808;11.292;2022-09-13T15:58:32;22.00;80.50
24402;DHT22;12539;48.808;11.292;2022-09-13T16:00:58;22.00;81.10
24402;DHT22;12539;48.808;11.292;2022-09-13T16:03:24;22.00;81.50
24402;DHT22;12539;48.808;11.292;2022-09-13T16:05:50;22.00;81.90
24402;DHT22;12539;48.808;11.292;2022-09-13T16:08:16;22.00;82.30
24402;DHT22;12539;48.808;11.292;2022-09-13T16:10:42;22.00;82.70
24402;DHT22;12539;48.808;11.292;2022-09-13T16:13:07;22.00;82.60
24402;DHT22;12539;48.808;11.292;2022-09-13T16:15:33;22.10;82.50
24402;DHT22;12539;48.808;11.292;2022-09-13T16:17:59;22.10;82.20
24402;DHT22;12539;48.808;11.292;2022-09-13T16:20:24;22.10;82.00
24402;DHT22;12539;48.808;11.292;2022-09-13T16:22:52;22.20;81.90
24402;DHT22;12539;48.808;11.292;2022-09-13T16:25:18;22.20;82.00
24402;DHT22;12539;48.808;11.292;2022-09-13T16:27:44;22.30;81.90
24402;DHT22;12539;48.808;11.292;2022-09-13T16:30:16;22.30;81.50
24402;DHT22;12539;48.808;11.292;2022-09-13T16:32:42;22.30;81.30
24402;DHT22;12539;48.808;11.292;2022-09-13T16:35:09;22.30;81.40
24402;DHT22;12539;48.808;11.292;2022-09-13T16:37:36;22.30;81.50
24402;DHT22;12539;48.808;11.292;2022-09-13T16:40:02;22.20;81.90
24402;DHT22;12539;48.808;11.292;2022-09-13T16:42:28;22.20;82.30
24402;DHT22;12539;48.808;11.292;2022-09-13T16:44:54;22.10;82.40
24402;DHT22;12539;48.808;11.292;2022-09-13T16:47:20;22.10;82.70
24402;DHT22;12539;48.808;11.292;2022-09-13T16:49:45;22.10;82.70
24402;DHT22;12539;48.808;11.292;2022-09-13T16:52:11;22.00;83.20
24402;DHT22;12539;48.808;11.292;2022-09-13T16:54:37;22.00;83.20
24402;DHT22;12539;48.808;11.292;2022-09-13T16:57:04;21.90;83.60
24402;DHT22;12539;48.808;11.292;2022-09-13T16:59:33;21.90;84.40
24402;DHT22;12539;48.808;11.292;2022-09-13T17:01:58;21.80;84.70
24402;DHT22;12539;48.808;11.292;2022-09-13T17:04:24;21.80;85.20
24402;DHT22;12539;48.808;11.292;2022-09-13T17:06:50;21.70;85.60
24402;DHT22;12539;48.808;11.292;2022-09-13T17:09:16;21.70;86.00
24402;DHT22;12539;48.808;11.292;2022-09-13T17:11:43;21.60;85.90
24402;DHT22;12539;48.808;11.292;2022-09-13T17:14:11;21.60;86.40
24402;DHT22;12539;48.808;11.292;2022-09-13T17:16:44;21.60;87.00
24402;DHT22;12539;48.808;11.292;2022-09-13T17:19:16;21.50;87.60
24402;DHT22;12539;48.808;11.292;2022-09-13T17:21:43;21.50;88.50
24402;DHT22;12539;48.808;11.292;2022-09-13T17:24:10;21.40;89.30
24402;DHT22;12539;48.808;11.292;2022-09-13T17:26:35;21.40;90.20
24402;DHT22;12539;48.808;11.292;2022-09-13T17:29:01;21.40;90.80
24402;DHT22;12539;48.808;11.292;2022-09-13T17:31:27;21.40;91.30
24402;DHT22;12539;48.808;11.292;2022-09-13T17:33:52;21.40;91.80
24402;DHT22;12539;48.808;11.292;2022-09-13T17:36:19;21.30;92.10
24402;DHT22;12539;48.808;11.292;2022-09-13T17:38:45;21.30;92.40
24402;DHT22;12539;48.808;11.292;2022-09-13T17:41:16;21.20;92.50
24402;DHT22;12539;48.808;11.292;2022-09-13T17:43:44;21.20;92.60
24402;DHT22;12539;48.808;11.292;2022-09-13T17:46:15;21.20;92.80
24402;DHT22;12539;48.808;11.292;2022-09-13T17:48:41;21.20;92.90
24402;DHT22;12539;48.808;11.292;2022-09-13T17:51:12;21.10;93.00
24402;DHT22;12539;48.808;11.292;2022-09-13T17:53:50;21.10;93.00
24402;DHT22;12539;48.808;11.292;2022-09-13T17:56:28;21.10;93.10
24402;DHT22;12539;48.808;11.292;2022-09-13T17:59:15;21.00;93.10
24402;DHT22;12539;48.808;11.292;2022-09-13T18:01:43;21.00;93.20
24402;DHT22;12539;48.808;11.292;2022-09-13T18:04:11;20.90;93.20
24402;DHT22;12539;48.808;11.292;2022-09-13T18:06:38;20.90;93.30
24402;DHT22;12539;48.808;11.292;2022-09-13T18:09:11;20.90;93.40
24402;DHT22;12539;48.808;11.292;2022-09-13T18:11:38;20.90;93.60
24402;DHT22;12539;48.808;11.292;2022-09-13T18:14:06;20.80;93.50
24402;DHT22;12539;48.808;11.292;2022-09-13T18:16:32;20.80;93.50
24402;DHT22;12539;48.808;11.292;2022-09-13T18:18:59;20.80;93.60
24402;DHT22;12539;48.808;11.292;2022-09-13T18:21:25;20.80;93.60
24402;DHT22;12539;48.808;11.292;2022-09-13T18:23:53;20.70;93.70
24402;DHT22;12539;48.808;11.292;2022-09-13T18:26:23;20.70;93.80
24402;DHT22;12539;48.808;11.292;2022-09-13T18:28:57;20.70;93.90
24402;DHT22;12539;48.808;11.292;2022-09-13T18:31:26;20.70;94.00
24402;DHT22;12539;48.808;11.292;2022-09-13T18:33:58;20.60;94.10
24402;DHT22;12539;48.808;11.292;2022-09-13T18:36:25;20.60;94.20
24402;DHT22;12539;48.808;11.292;2022-09-13T18:38:52;20.50;94.30
24402;DHT22;12539;48.808;11.292;2022-09-13T18:41:24;20.40;94.50
24402;DHT22;12539;48.808;11.292;2022-09-13T18:43:51;20.40;94.60
24402;DHT22;12539;48.808;11.292;2022-09-13T18:46:20;20.40;94.80
24402;DHT22;12539;48.808;11.292;2022-09-13T18:48:50;20.30;94.90
24402;DHT22;12539;48.808;11.292;2022-09-13T18:51:38;20.20;95.00
24402;DHT22;12539;48.808;11.292;2022-09-13T18:54:05;20.20;95.20
24402;DHT22;12539;48.808;11.292;2022-09-13T18:56:32;20.20;95.30
24402;DHT22;12539;48.808;11.292;2022-09-13T18:58:59;20.10;95.40
24402;DHT22;12539;48.808;11.292;2022-09-13T19:01:30;20.10;95.50
24402;DHT22;12539;48.808;11.292;2022-09-13T19:03:58;20.00;95.70
24402;DHT22;12539;48.808;11.292;2022-09-13T19:06:39;20.00;95.80
24402;DHT22;12539;48.808;11.292;2022-09-13T19:09:07;20.00;96.00
24402;DHT22;12539;48.808;11.292;2022-09-13T19:11:36;19.90;96.10
24402;DHT22;12539;48.808;11.292;2022-09-13T19:14:03;19.90;96.30
24402;DHT22;12539;48.808;11.292;2022-09-13T19:16:28;19.90;96.40
24402;DHT22;12539;48.808;11.292;2022-09-13T19:18:54;19.80;96.50
24402;DHT22;12539;48.808;11.292;2022-09-13T19:21:26;19.80;96.80
24402;DHT22;12539;48.808;11.292;2022-09-13T19:23:58;19.70;96.80
24402;DHT22;12539;48.808;11.292;2022-09-13T19:26:36;19.70;97.00
24402;DHT22;12539;48.808;11.292;2022-09-13T19:29:08;19.70;97.10
24402;DHT22;12539;48.808;11.292;2022-09-13T19:31:37;19.60;97.20
24402;DHT22;12539;48.808;11.292;2022-09-13T19:34:04;19.60;97.40
24402;DHT22;12539;48.808;11.292;2022-09-13T19:36:32;19.50;97.50
24402;DHT22;12539;48.808;11.292;2022-09-13T19:38:58;19.50;97.70
24402;DHT22;12539;48.808;11.292;2022-09-13T19:41:27;19.40;97.80